sensor_id;sensor_type;location;lat;lon;timestamp;P1;durP1;ratioP1;P2;durP2;ratioP2
76373;SDS011;65197;50.164;8.012;2023-03-09T00:01:04;53.92;;;10.45;;
76373;SDS011;65197;50.164;8.012;2023-03-09T00:03:29;111.82;;;14.13;;
76373;SDS011;65197;50.164;8.012;2023-03-09T00:05:56;41.45;;;9.20;;
76373;SDS011;65197;50.164;8.012;2023-03-09T00:08:23;112.30;;;15.18;;
76373;SDS011;65197;50.164;8.012;2023-03-09T00:10:49;112.97;;;13.63;;
76373;SDS011;65197;50.164;8.012;2023-03-09T00:13:17;121.45;;;15.55;;
76373;SDS011;65197;50.164;8.012;2023-03-09T00:15:46;112.03;;;14.43;;
76373;SDS011;65197;50.164;8.012;2023-03-09T00:18:18;268.00;;;26.63;;
76373;SDS011;65197;50.164;8.012;2023-03-09T00:20:45;315.77;;;31.10;;
76373;SDS011;65197;50.164;8.012;2023-03-09T00:23:11;189.52;;;20.70;;
76373;SDS011;65197;50.164;8.012;2023-03-09T00:25:37;154.25;;;14.20;;
76373;SDS011;65197;50.164;8.012;2023-03-09T00:28:03;53.20;;;8.65;;
76373;SDS011;65197;50.164;8.012;2023-03-09T00:30:28;238.13;;;25.02;;
76373;SDS011;65197;50.164;8.012;2023-03-09T00:32:54;241.73;;;20.30;;
76373;SDS011;65197;50.164;8.012;2023-03-09T00:35:19;177.25;;;18.40;;
76373;SDS011;65197;50.164;8.012;2023-03-09T00:37:45;149.93;;;15.45;;
76373;SDS011;65197;50.164;8.012;2023-03-09T00:40:11;180.20;;;18.35;;
76373;SDS011;65197;50.164;8.012;2023-03-09T00:42:41;310.98;;;30.65;;
76373;SDS011;65197;50.164;8.012;2023-03-09T00:45:07;177.13;;;20.13;;
76373;SDS011;65197;50.164;8.012;2023-03-09T00:47:33;9.02;;;4.13;;
76373;SDS011;65197;50.164;8.012;2023-03-09T00:49:59;13.68;;;4.97;;
76373;SDS011;65197;50.164;8.012;2023-03-09T00:52:24;13.63;;;5.78;;
76373;SDS011;65197;50.164;8.012;2023-03-09T00:54:50;89.45;;;12.20;;
76373;SDS011;65197;50.164;8.012;2023-03-09T00:57:18;94.10;;;11.30;;
76373;SDS011;65197;50.164;8.012;2023-03-09T00:59:48;213.27;;;22.15;;
76373;SDS011;65197;50.164;8.012;2023-03-09T01:02:13;20.35;;;5.35;;
76373;SDS011;65197;50.164;8.012;2023-03-09T01:04:39;15.90;;;5.78;;
76373;SDS011;65197;50.164;8.012;2023-03-09T01:07:05;16.90;;;5.97;;
76373;SDS011;65197;50.164;8.012;2023-03-09T01:09:30;17.52;;;5.60;;
76373;SDS011;65197;50.164;8.012;2023-03-09T01:11:56;66.25;;;9.25;;
76373;SDS011;65197;50.164;8.012;2023-03-09T01:14:21;9.45;;;3.60;;
76373;SDS011;65197;50.164;8.012;2023-03-09T01:16:47;4.95;;;2.10;;
76373;SDS011;65197;50.164;8.012;2023-03-09T01:19:12;3.97;;;1.60;;
76373;SDS011;65197;50.164;8.012;2023-03-09T01:21:38;4.30;;;1.85;;
76373;SDS011;65197;50.164;8.012;2023-03-09T01:24:03;4.80;;;1.77;;
76373;SDS011;65197;50.164;8.012;2023-03-09T01:26:29;3.28;;;1.65;;
76373;SDS011;65197;50.164;8.012;2023-03-09T01:28:54;2.53;;;1.30;;
76373;SDS011;65197;50.164;8.012;2023-03-09T01:31:19;3.15;;;1.13;;
76373;SDS011;65197;50.164;8.012;2023-03-09T01:33:45;3.08;;;1.33;;
76373;SDS011;65197;50.164;8.012;2023-03-09T01:36:13;4.47;;;2.00;;
76373;SDS011;65197;50.164;8.012;2023-03-09T01:38:40;3.53;;;1.50;;
76373;SDS011;65197;50.164;8.012;2023-03-09T01:41:06;2.22;;;1.40;;
76373;SDS011;65197;50.164;8.012;2023-03-09T01:43:35;3.35;;;1.42;;
76373;SDS011;65197;50.164;8.012;2023-03-09T01:54:34;2.53;;;1.30;;
76373;SDS011;65197;50.164;8.012;2023-03-09T02:00:19;2.00;;;1.02;;
76373;SDS011;65197;50.164;8.012;2023-03-09T02:02:53;2.00;;;0.98;;
76373;SDS011;65197;50.164;8.012;2023-03-09T02:05:31;1.38;;;0.90;;
76373;SDS011;65197;50.164;8.012;2023-03-09T02:08:19;1.73;;;1.23;;
76373;SDS011;65197;50.164;8.012;2023-03-09T02:10:48;2.75;;;1.00;;
76373;SDS011;65197;50.164;8.012;2023-03-09T02:13:18;2.80;;;1.08;;
76373;SDS011;65197;50.164;8.012;2023-03-09T02:15:46;1.73;;;1.00;;
76373;SDS011;65197;50.164;8.012;2023-03-09T02:18:11;2.22;;;1.13;;
76373;SDS011;65197;50.164;8.012;2023-03-09T02:20:47;0.80;;;0.60;;
76373;SDS011;65197;50.164;8.012;2023-03-09T02:26:39;2.55;;;0.95;;
76373;SDS011;65197;50.164;8.012;2023-03-09T02:29:08;1.75;;;0.70;;
76373;SDS011;65197;50.164;8.012;2023-03-09T02:31:34;1.20;;;0.88;;
76373;SDS011;65197;50.164;8.012;2023-03-09T02:33:59;1.42;;;0.90;;
76373;SDS011;65197;50.164;8.012;2023-03-09T02:36:24;1.55;;;0.82;;
76373;SDS011;65197;50.164;8.012;2023-03-09T02:38:51;3.90;;;1.08;;
76373;SDS011;65197;50.164;8.012;2023-03-09T02:41:16;1.33;;;0.73;;
76373;SDS011;65197;50.164;8.012;2023-03-09T02:43:46;1.30;;;0.68;;
76373;SDS011;65197;50.164;8.012;2023-03-09T02:46:16;1.30;;;1.00;;
76373;SDS011;65197;50.164;8.012;2023-03-09T02:52:03;1.33;;;0.80;;
76373;SDS011;65197;50.164;8.012;2023-03-09T02:54:28;1.30;;;0.88;;
76373;SDS011;65197;50.164;8.012;2023-03-09T02:56:54;1.45;;;0.90;;
76373;SDS011;65197;50.164;8.012;2023-03-09T02:59:19;1.55;;;0.57;;
76373;SDS011;65197;50.164;8.012;2023-03-09T03:01:44;2.15;;;0.77;;
76373;SDS011;65197;50.164;8.012;2023-03-09T03:04:10;1.60;;;0.73;;
76373;SDS011;65197;50.164;8.012;2023-03-09T03:06:35;1.25;;;0.95;;
76373;SDS011;65197;50.164;8.012;2023-03-09T03:09:00;1.45;;;1.13;;
76373;SDS011;65197;50.164;8.012;2023-03-09T03:11:26;1.42;;;0.98;;
76373;SDS011;65197;50.164;8.012;2023-03-09T03:13:51;2.53;;;1.00;;
76373;SDS011;65197;50.164;8.012;2023-03-09T03:16:17;1.85;;;1.02;;
76373;SDS011;65197;50.164;8.012;2023-03-09T03:18:42;2.03;;;1.30;;
76373;SDS011;65197;50.164;8.012;2023-03-09T03:21:07;2.00;;;1.10;;
76373;SDS011;65197;50.164;8.012;2023-03-09T03:23:33;1.90;;;1.10;;
76373;SDS011;65197;50.164;8.012;2023-03-09T03:26:05;1.67;;;1.00;;
76373;SDS011;65197;50.164;8.012;2023-03-09T03:28:31;2.80;;;0.93;;
76373;SDS011;65197;50.164;8.012;2023-03-09T03:30:56;3.42;;;1.10;;
76373;SDS011;65197;50.164;8.012;2023-03-09T03:33:22;2.63;;;1.17;;
76373;SDS011;65197;50.164;8.012;2023-03-09T03:35:47;2.17;;;1.25;;
76373;SDS011;65197;50.164;8.012;2023-03-09T03:38:12;3.40;;;1.40;;
76373;SDS011;65197;50.164;8.012;2023-03-09T03:40:38;2.38;;;1.20;;
76373;SDS011;65197;50.164;8.012;2023-03-09T03:43:03;2.25;;;1.38;;
76373;SDS011;65197;50.164;8.012;2023-03-09T03:45:28;3.72;;;1.50;;
76373;SDS011;65197;50.164;8.012;2023-03-09T03:47:54;3.20;;;1.65;;
76373;SDS011;65197;50.164;8.012;2023-03-09T03:50:19;4.35;;;1.60;;
76373;SDS011;65197;50.164;8.012;2023-03-09T03:52:45;4.25;;;1.50;;
76373;SDS011;65197;50.164;8.012;2023-03-09T03:55:10;2.45;;;1.50;;
76373;SDS011;65197;50.164;8.012;2023-03-09T03:57:35;3.53;;;1.67;;
76373;SDS011;65197;50.164;8.012;2023-03-09T04:00:01;3.33;;;1.60;;
76373;SDS011;65197;50.164;8.012;2023-03-09T04:02:29;3.78;;;1.70;;
76373;SDS011;65197;50.164;8.012;2023-03-09T04:04:54;2.38;;;1.52;;
76373;SDS011;65197;50.164;8.012;2023-03-09T04:07:21;2.63;;;1.40;;
76373;SDS011;65197;50.164;8.012;2023-03-09T04:09:46;3.38;;;1.90;;
76373;SDS011;65197;50.164;8.012;2023-03-09T04:12:12;3.15;;;1.73;;
76373;SDS011;65197;50.164;8.012;2023-03-09T04:14:37;3.90;;;2.30;;
76373;SDS011;65197;50.164;8.012;2023-03-09T04:17:03;4.07;;;2.17;;
76373;SDS011;65197;50.164;8.012;2023-03-09T04:19:28;4.68;;;1.98;;
76373;SDS011;65197;50.164;8.012;2023-03-09T04:21:54;3.30;;;1.95;;
76373;SDS011;65197;50.164;8.012;2023-03-09T04:24:19;5.50;;;2.22;;
76373;SDS011;65197;50.164;8.012;2023-03-09T04:26:44;4.45;;;1.95;;
76373;SDS011;65197;50.164;8.012;2023-03-09T04:29:10;4.30;;;2.25;;
76373;SDS011;65197;50.164;8.012;2023-03-09T04:31:35;6.75;;;2.40;;
76373;SDS011;65197;50.164;8.012;2023-03-09T04:34:00;8.00;;;2.20;;
76373;SDS011;65197;50.164;8.012;2023-03-09T04:36:26;4.68;;;2.00;;
76373;SDS011;65197;50.164;8.012;2023-03-09T04:38:52;4.63;;;2.47;;
76373;SDS011;65197;50.164;8.012;2023-03-09T04:41:17;4.35;;;1.92;;
76373;SDS011;65197;50.164;8.012;2023-03-09T04:43:43;6.65;;;2.10;;
76373;SDS011;65197;50.164;8.012;2023-03-09T04:46:08;6.72;;;2.08;;
76373;SDS011;65197;50.164;8.012;2023-03-09T04:48:33;5.80;;;2.22;;
76373;SDS011;65197;50.164;8.012;2023-03-09T04:50:59;4.75;;;2.03;;
76373;SDS011;65197;50.164;8.012;2023-03-09T04:53:24;4.47;;;2.03;;
76373;SDS011;65197;50.164;8.012;2023-03-09T04:55:49;4.35;;;2.13;;
76373;SDS011;65197;50.164;8.012;2023-03-09T04:58:15;3.40;;;1.83;;
76373;SDS011;65197;50.164;8.012;2023-03-09T05:00:40;7.38;;;2.85;;
76373;SDS011;65197;50.164;8.012;2023-03-09T05:03:06;3.25;;;1.55;;
76373;SDS011;65197;50.164;8.012;2023-03-09T05:05:31;5.10;;;1.70;;
76373;SDS011;65197;50.164;8.012;2023-03-09T05:07:57;3.63;;;1.50;;
76373;SDS011;65197;50.164;8.012;2023-03-09T05:10:22;2.85;;;1.50;;
76373;SDS011;65197;50.164;8.012;2023-03-09T05:12:47;3.00;;;1.50;;
76373;SDS011;65197;50.164;8.012;2023-03-09T05:15:13;4.65;;;1.50;;
76373;SDS011;65197;50.164;8.012;2023-03-09T05:17:38;3.70;;;1.40;;
76373;SDS011;65197;50.164;8.012;2023-03-09T05:20:04;4.88;;;1.85;;
76373;SDS011;65197;50.164;8.012;2023-03-09T05:22:34;4.72;;;1.63;;
76373;SDS011;65197;50.164;8.012;2023-03-09T05:24:59;3.50;;;1.48;;
76373;SDS011;65197;50.164;8.012;2023-03-09T05:27:25;7.18;;;2.00;;
76373;SDS011;65197;50.164;8.012;2023-03-09T05:29:53;3.67;;;1.55;;
76373;SDS011;65197;50.164;8.012;2023-03-09T05:32:18;8.18;;;1.92;;
76373;SDS011;65197;50.164;8.012;2023-03-09T05:34:45;4.95;;;3.80;;
76373;SDS011;65197;50.164;8.012;2023-03-09T05:37:11;12.32;;;2.17;;
76373;SDS011;65197;50.164;8.012;2023-03-09T05:39:36;9.75;;;2.70;;
76373;SDS011;65197;50.164;8.012;2023-03-09T05:42:02;9.75;;;2.53;;
76373;SDS011;65197;50.164;8.012;2023-03-09T05:44:27;8.75;;;2.42;;
76373;SDS011;65197;50.164;8.012;2023-03-09T05:46:53;10.73;;;2.25;;
76373;SDS011;65197;50.164;8.012;2023-03-09T05:49:19;8.20;;;2.65;;
76373;SDS011;65197;50.164;8.012;2023-03-09T05:51:44;14.93;;;3.47;;
76373;SDS011;65197;50.164;8.012;2023-03-09T05:54:10;10.50;;;2.42;;
76373;SDS011;65197;50.164;8.012;2023-03-09T05:56:35;6.22;;;2.15;;
76373;SDS011;65197;50.164;8.012;2023-03-09T05:59:00;10.77;;;2.03;;
76373;SDS011;65197;50.164;8.012;2023-03-09T06:01:27;7.90;;;1.60;;
76373;SDS011;65197;50.164;8.012;2023-03-09T06:03:53;7.53;;;2.10;;
76373;SDS011;65197;50.164;8.012;2023-03-09T06:06:20;5.68;;;1.40;;
76373;SDS011;65197;50.164;8.012;2023-03-09T06:08:46;3.38;;;1.63;;
76373;SDS011;65197;50.164;8.012;2023-03-09T06:11:12;7.20;;;1.92;;
76373;SDS011;65197;50.164;8.012;2023-03-09T06:13:37;8.30;;;2.30;;
76373;SDS011;65197;50.164;8.012;2023-03-09T06:16:07;7.40;;;2.78;;
76373;SDS011;65197;50.164;8.012;2023-03-09T06:18:34;8.95;;;2.08;;
76373;SDS011;65197;50.164;8.012;2023-03-09T06:21:00;7.22;;;2.00;;
76373;SDS011;65197;50.164;8.012;2023-03-09T06:23:28;8.35;;;2.38;;
76373;SDS011;65197;50.164;8.012;2023-03-09T06:25:54;9.65;;;2.30;;
76373;SDS011;65197;50.164;8.012;2023-03-09T06:28:19;7.47;;;2.00;;
76373;SDS011;65197;50.164;8.012;2023-03-09T06:30:44;10.65;;;2.30;;
76373;SDS011;65197;50.164;8.012;2023-03-09T06:33:10;9.13;;;2.60;;
76373;SDS011;65197;50.164;8.012;2023-03-09T06:35:35;11.45;;;2.50;;
76373;SDS011;65197;50.164;8.012;2023-03-09T06:38:01;7.97;;;2.85;;
76373;SDS011;65197;50.164;8.012;2023-03-09T06:40:27;6.90;;;2.42;;
76373;SDS011;65197;50.164;8.012;2023-03-09T06:42:53;7.22;;;2.75;;
76373;SDS011;65197;50.164;8.012;2023-03-09T06:45:18;10.32;;;2.83;;
76373;SDS011;65197;50.164;8.012;2023-03-09T06:47:46;6.65;;;2.50;;
76373;SDS011;65197;50.164;8.012;2023-03-09T06:50:11;9.38;;;3.08;;
76373;SDS011;65197;50.164;8.012;2023-03-09T06:52:37;9.35;;;3.55;;
76373;SDS011;65197;50.164;8.012;2023-03-09T06:55:02;8.63;;;2.72;;
76373;SDS011;65197;50.164;8.012;2023-03-09T06:57:28;6.75;;;2.83;;
76373;SDS011;65197;50.164;8.012;2023-03-09T06:59:54;9.90;;;4.85;;
76373;SDS011;65197;50.164;8.012;2023-03-09T07:02:19;6.03;;;3.15;;
76373;SDS011;65197;50.164;8.012;2023-03-09T07:04:45;8.25;;;3.75;;
76373;SDS011;65197;50.164;8.012;2023-03-09T07:07:11;10.18;;;4.07;;
76373;SDS011;65197;50.164;8.012;2023-03-09T07:09:37;16.38;;;7.03;;
76373;SDS011;65197;50.164;8.012;2023-03-09T07:12:03;8.35;;;3.88;;
76373;SDS011;65197;50.164;8.012;2023-03-09T07:14:29;6.70;;;2.72;;
76373;SDS011;65197;50.164;8.012;2023-03-09T07:16:55;6.38;;;2.40;;
76373;SDS011;65197;50.164;8.012;2023-03-09T07:19:21;9.30;;;3.10;;
76373;SDS011;65197;50.164;8.012;2023-03-09T07:21:47;8.20;;;2.00;;
76373;SDS011;65197;50.164;8.012;2023-03-09T07:24:13;8.85;;;2.45;;
76373;SDS011;65197;50.164;8.012;2023-03-09T07:26:38;6.80;;;2.22;;
76373;SDS011;65197;50.164;8.012;2023-03-09T07:29:04;6.85;;;3.03;;
76373;SDS011;65197;50.164;8.012;2023-03-09T07:31:29;7.07;;;2.45;;
76373;SDS011;65197;50.164;8.012;2023-03-09T07:33:55;6.55;;;2.00;;
76373;SDS011;65197;50.164;8.012;2023-03-09T07:36:21;5.45;;;2.53;;
76373;SDS011;65197;50.164;8.012;2023-03-09T07:38:47;5.15;;;2.38;;
76373;SDS011;65197;50.164;8.012;2023-03-09T07:41:13;4.55;;;2.10;;
76373;SDS011;65197;50.164;8.012;2023-03-09T07:43:39;5.40;;;1.75;;
76373;SDS011;65197;50.164;8.012;2023-03-09T07:46:09;6.25;;;2.38;;
76373;SDS011;65197;50.164;8.012;2023-03-09T07:48:36;5.93;;;2.33;;
76373;SDS011;65197;50.164;8.012;2023-03-09T07:51:03;3.88;;;1.88;;
76373;SDS011;65197;50.164;8.012;2023-03-09T07:53:35;5.07;;;1.98;;
76373;SDS011;65197;50.164;8.012;2023-03-09T07:56:02;3.10;;;1.85;;
76373;SDS011;65197;50.164;8.012;2023-03-09T07:58:32;3.20;;;1.80;;
76373;SDS011;65197;50.164;8.012;2023-03-09T08:00:59;3.30;;;2.13;;
76373;SDS011;65197;50.164;8.012;2023-03-09T08:03:25;3.45;;;1.98;;
76373;SDS011;65197;50.164;8.012;2023-03-09T08:05:51;4.93;;;2.00;;
76373;SDS011;65197;50.164;8.012;2023-03-09T08:08:27;3.15;;;1.92;;
76373;SDS011;65197;50.164;8.012;2023-03-09T08:10:52;4.50;;;2.05;;
76373;SDS011;65197;50.164;8.012;2023-03-09T08:13:19;5.07;;;1.90;;
76373;SDS011;65197;50.164;8.012;2023-03-09T08:15:46;4.75;;;1.92;;
76373;SDS011;65197;50.164;8.012;2023-03-09T08:18:12;4.50;;;1.80;;
76373;SDS011;65197;50.164;8.012;2023-03-09T08:20:37;3.00;;;1.55;;
76373;SDS011;65197;50.164;8.012;2023-03-09T08:23:03;3.65;;;2.13;;
76373;SDS011;65197;50.164;8.012;2023-03-09T08:25:29;4.65;;;2.00;;
76373;SDS011;65197;50.164;8.012;2023-03-09T08:27:55;6.32;;;2.33;;
76373;SDS011;65197;50.164;8.012;2023-03-09T08:30:20;4.15;;;1.80;;
76373;SDS011;65197;50.164;8.012;2023-03-09T08:32:49;4.18;;;1.75;;
76373;SDS011;65197;50.164;8.012;2023-03-09T08:35:16;5.00;;;2.22;;
76373;SDS011;65197;50.164;8.012;2023-03-09T08:37:42;4.80;;;1.73;;
76373;SDS011;65197;50.164;8.012;2023-03-09T08:40:07;5.22;;;2.42;;
76373;SDS011;65197;50.164;8.012;2023-03-09T08:42:33;4.45;;;2.25;;
76373;SDS011;65197;50.164;8.012;2023-03-09T08:44:59;5.88;;;2.30;;
76373;SDS011;65197;50.164;8.012;2023-03-09T08:47:25;4.75;;;2.03;;
76373;SDS011;65197;50.164;8.012;2023-03-09T08:49:50;4.18;;;2.17;;
76373;SDS011;65197;50.164;8.012;2023-03-09T08:52:16;4.88;;;2.47;;
76373;SDS011;65197;50.164;8.012;2023-03-09T08:54:41;4.72;;;2.00;;
76373;SDS011;65197;50.164;8.012;2023-03-09T08:57:07;4.95;;;1.60;;
76373;SDS011;65197;50.164;8.012;2023-03-09T08:59:33;4.32;;;2.08;;
76373;SDS011;65197;50.164;8.012;2023-03-09T09:01:59;4.97;;;1.90;;
76373;SDS011;65197;50.164;8.012;2023-03-09T09:04:25;3.65;;;1.70;;
76373;SDS011;65197;50.164;8.012;2023-03-09T09:06:50;6.22;;;1.88;;
76373;SDS011;65197;50.164;8.012;2023-03-09T09:09:15;4.10;;;1.92;;
76373;SDS011;65197;50.164;8.012;2023-03-09T09:11:41;5.45;;;1.85;;
76373;SDS011;65197;50.164;8.012;2023-03-09T09:14:06;4.43;;;2.10;;
76373;SDS011;65197;50.164;8.012;2023-03-09T09:16:32;5.80;;;1.80;;
76373;SDS011;65197;50.164;8.012;2023-03-09T09:18:57;2.80;;;1.50;;
76373;SDS011;65197;50.164;8.012;2023-03-09T09:21:23;3.28;;;1.40;;
76373;SDS011;65197;50.164;8.012;2023-03-09T09:23:48;3.05;;;1.50;;
76373;SDS011;65197;50.164;8.012;2023-03-09T09:26:14;2.97;;;1.30;;
76373;SDS011;65197;50.164;8.012;2023-03-09T09:28:41;3.42;;;1.67;;
76373;SDS011;65197;50.164;8.012;2023-03-09T09:31:09;4.65;;;1.60;;
76373;SDS011;65197;50.164;8.012;2023-03-09T09:33:37;4.80;;;1.92;;
76373;SDS011;65197;50.164;8.012;2023-03-09T09:36:07;3.45;;;2.08;;
76373;SDS011;65197;50.164;8.012;2023-03-09T09:38:36;5.93;;;1.85;;
76373;SDS011;65197;50.164;8.012;2023-03-09T09:41:04;5.43;;;1.92;;
76373;SDS011;65197;50.164;8.012;2023-03-09T09:43:32;3.75;;;1.80;;
76373;SDS011;65197;50.164;8.012;2023-03-09T09:45:59;6.35;;;2.40;;
76373;SDS011;65197;50.164;8.012;2023-03-09T09:48:26;4.65;;;1.95;;
76373;SDS011;65197;50.164;8.012;2023-03-09T09:51:08;3.22;;;2.10;;
76373;SDS011;65197;50.164;8.012;2023-03-09T09:56:39;4.75;;;1.52;;
76373;SDS011;65197;50.164;8.012;2023-03-09T09:59:13;2.97;;;1.80;;
76373;SDS011;65197;50.164;8.012;2023-03-09T10:01:58;5.63;;;1.90;;
76373;SDS011;65197;50.164;8.012;2023-03-09T10:04:30;5.72;;;1.75;;
76373;SDS011;65197;50.164;8.012;2023-03-09T10:07:02;7.85;;;1.88;;
76373;SDS011;65197;50.164;8.012;2023-03-09T10:09:38;4.03;;;2.08;;
76373;SDS011;65197;50.164;8.012;2023-03-09T10:12:05;5.38;;;2.22;;
76373;SDS011;65197;50.164;8.012;2023-03-09T10:17:24;5.57;;;1.83;;
76373;SDS011;65197;50.164;8.012;2023-03-09T10:19:57;4.90;;;1.63;;
76373;SDS011;65197;50.164;8.012;2023-03-09T10:22:27;3.55;;;1.65;;
76373;SDS011;65197;50.164;8.012;2023-03-09T10:24:53;3.92;;;1.67;;
76373;SDS011;65197;50.164;8.012;2023-03-09T10:30:11;5.28;;;2.00;;
76373;SDS011;65197;50.164;8.012;2023-03-09T10:33:01;3.22;;;2.30;;
76373;SDS011;65197;50.164;8.012;2023-03-09T10:38:16;5.15;;;1.90;;
76373;SDS011;65197;50.164;8.012;2023-03-09T10:40:47;5.20;;;1.67;;
76373;SDS011;65197;50.164;8.012;2023-03-09T10:43:22;3.85;;;1.73;;
76373;SDS011;65197;50.164;8.012;2023-03-09T10:45:52;4.50;;;1.92;;
76373;SDS011;65197;50.164;8.012;2023-03-09T10:48:27;7.25;;;1.58;;
76373;SDS011;65197;50.164;8.012;2023-03-09T10:50:56;7.60;;;1.90;;
76373;SDS011;65197;50.164;8.012;2023-03-09T10:56:22;5.30;;;1.65;;
76373;SDS011;65197;50.164;8.012;2023-03-09T11:01:53;4.13;;;1.75;;
76373;SDS011;65197;50.164;8.012;2023-03-09T11:12:14;5.20;;;1.70;;
76373;SDS011;65197;50.164;8.012;2023-03-09T11:15:00;3.30;;;1.80;;
76373;SDS011;65197;50.164;8.012;2023-03-09T11:17:32;5.53;;;1.70;;
76373;SDS011;65197;50.164;8.012;2023-03-09T11:22:37;3.30;;;1.92;;
76373;SDS011;65197;50.164;8.012;2023-03-09T11:25:11;4.80;;;1.80;;
76373;SDS011;65197;50.164;8.012;2023-03-09T11:27:42;3.10;;;1.52;;
76373;SDS011;65197;50.164;8.012;2023-03-09T11:30:15;6.50;;;1.73;;
76373;SDS011;65197;50.164;8.012;2023-03-09T11:32:41;6.70;;;2.00;;
76373;SDS011;65197;50.164;8.012;2023-03-09T11:35:16;5.28;;;1.55;;
76373;SDS011;65197;50.164;8.012;2023-03-09T11:37:44;3.58;;;1.30;;
76373;SDS011;65197;50.164;8.012;2023-03-09T11:40:15;5.07;;;1.60;;
76373;SDS011;65197;50.164;8.012;2023-03-09T11:42:51;5.40;;;1.55;;
76373;SDS011;65197;50.164;8.012;2023-03-09T11:45:25;3.90;;;1.50;;
76373;SDS011;65197;50.164;8.012;2023-03-09T11:50:26;4.85;;;1.83;;
76373;SDS011;65197;50.164;8.012;2023-03-09T11:55:29;6.13;;;1.83;;
76373;SDS011;65197;50.164;8.012;2023-03-09T11:58:00;4.45;;;1.27;;
76373;SDS011;65197;50.164;8.012;2023-03-09T12:00:28;9.43;;;2.00;;
76373;SDS011;65197;50.164;8.012;2023-03-09T12:05:25;6.13;;;1.85;;
76373;SDS011;65197;50.164;8.012;2023-03-09T12:10:42;7.25;;;1.67;;
76373;SDS011;65197;50.164;8.012;2023-03-09T12:13:18;6.53;;;4.50;;
76373;SDS011;65197;50.164;8.012;2023-03-09T12:18:21;5.65;;;1.98;;
76373;SDS011;65197;50.164;8.012;2023-03-09T12:21:08;4.45;;;1.33;;
76373;SDS011;65197;50.164;8.012;2023-03-09T12:26:00;6.68;;;3.75;;
76373;SDS011;65197;50.164;8.012;2023-03-09T12:28:31;8.73;;;3.90;;
76373;SDS011;65197;50.164;8.012;2023-03-09T12:30:58;8.07;;;1.90;;
76373;SDS011;65197;50.164;8.012;2023-03-09T12:36:23;9.35;;;2.78;;
76373;SDS011;65197;50.164;8.012;2023-03-09T12:42:02;7.43;;;2.50;;
76373;SDS011;65197;50.164;8.012;2023-03-09T12:47:20;6.38;;;2.38;;
76373;SDS011;65197;50.164;8.012;2023-03-09T12:49:49;6.60;;;2.50;;
76373;SDS011;65197;50.164;8.012;2023-03-09T12:55:23;7.45;;;2.47;;
76373;SDS011;65197;50.164;8.012;2023-03-09T13:08:59;10.73;;;2.20;;
76373;SDS011;65197;50.164;8.012;2023-03-09T13:11:38;7.47;;;1.80;;
76373;SDS011;65197;50.164;8.012;2023-03-09T13:14:13;10.73;;;2.30;;
76373;SDS011;65197;50.164;8.012;2023-03-09T13:24:25;5.53;;;1.85;;
76373;SDS011;65197;50.164;8.012;2023-03-09T13:29:41;5.53;;;1.83;;
76373;SDS011;65197;50.164;8.012;2023-03-09T13:32:20;5.53;;;2.00;;
76373;SDS011;65197;50.164;8.012;2023-03-09T13:34:55;4.10;;;1.88;;
76373;SDS011;65197;50.164;8.012;2023-03-09T13:37:24;7.85;;;1.70;;
76373;SDS011;65197;50.164;8.012;2023-03-09T13:40:03;3.67;;;1.58;;
76373;SDS011;65197;50.164;8.012;2023-03-09T13:42:30;5.50;;;1.83;;
76373;SDS011;65197;50.164;8.012;2023-03-09T13:44:59;8.07;;;1.85;;
76373;SDS011;65197;50.164;8.012;2023-03-09T13:47:29;6.93;;;1.63;;
76373;SDS011;65197;50.164;8.012;2023-03-09T13:49:59;8.02;;;3.55;;
76373;SDS011;65197;50.164;8.012;2023-03-09T13:52:25;8.52;;;2.92;;
76373;SDS011;65197;50.164;8.012;2023-03-09T13:54:53;8.32;;;2.00;;
76373;SDS011;65197;50.164;8.012;2023-03-09T13:57:24;4.95;;;1.70;;
76373;SDS011;65197;50.164;8.012;2023-03-09T13:59:58;6.35;;;1.60;;
76373;SDS011;65197;50.164;8.012;2023-03-09T14:02:40;7.90;;;1.90;;
76373;SDS011;65197;50.164;8.012;2023-03-09T14:07:44;4.85;;;1.52;;
76373;SDS011;65197;50.164;8.012;2023-03-09T14:13:00;7.93;;;1.70;;
76373;SDS011;65197;50.164;8.012;2023-03-09T14:15:28;5.25;;;2.35;;
76373;SDS011;65197;50.164;8.012;2023-03-09T14:17:54;4.03;;;1.42;;
76373;SDS011;65197;50.164;8.012;2023-03-09T14:20:26;6.15;;;1.63;;
76373;SDS011;65197;50.164;8.012;2023-03-09T14:23:17;5.95;;;1.70;;
76373;SDS011;65197;50.164;8.012;2023-03-09T14:25:56;8.52;;;2.03;;
76373;SDS011;65197;50.164;8.012;2023-03-09T14:28:29;9.35;;;2.63;;
76373;SDS011;65197;50.164;8.012;2023-03-09T14:31:10;9.82;;;2.40;;
76373;SDS011;65197;50.164;8.012;2023-03-09T14:33:36;8.18;;;2.65;;
76373;SDS011;65197;50.164;8.012;2023-03-09T14:36:18;7.63;;;1.90;;
76373;SDS011;65197;50.164;8.012;2023-03-09T14:38:50;8.20;;;1.95;;
76373;SDS011;65197;50.164;8.012;2023-03-09T14:41:20;6.95;;;1.70;;
76373;SDS011;65197;50.164;8.012;2023-03-09T14:46:17;7.72;;;2.00;;
76373;SDS011;65197;50.164;8.012;2023-03-09T14:48:53;7.85;;;1.83;;
76373;SDS011;65197;50.164;8.012;2023-03-09T14:51:24;5.88;;;1.98;;
76373;SDS011;65197;50.164;8.012;2023-03-09T14:53:53;12.55;;;2.50;;
76373;SDS011;65197;50.164;8.012;2023-03-09T14:56:28;6.72;;;2.03;;
76373;SDS011;65197;50.164;8.012;2023-03-09T14:58:55;7.90;;;2.15;;
76373;SDS011;65197;50.164;8.012;2023-03-09T15:01:23;10.43;;;2.15;;
76373;SDS011;65197;50.164;8.012;2023-03-09T15:03:50;9.30;;;2.05;;
76373;SDS011;65197;50.164;8.012;2023-03-09T15:06:15;6.43;;;2.10;;
76373;SDS011;65197;50.164;8.012;2023-03-09T15:08:41;8.90;;;2.15;;
76373;SDS011;65197;50.164;8.012;2023-03-09T15:11:06;10.18;;;2.15;;
76373;SDS011;65197;50.164;8.012;2023-03-09T15:13:32;6.75;;;1.95;;
76373;SDS011;65197;50.164;8.012;2023-03-09T15:15:59;8.95;;;2.53;;
76373;SDS011;65197;50.164;8.012;2023-03-09T15:18:24;10.77;;;2.13;;
76373;SDS011;65197;50.164;8.012;2023-03-09T15:20:49;10.55;;;2.10;;
76373;SDS011;65197;50.164;8.012;2023-03-09T15:23:15;8.77;;;2.97;;
76373;SDS011;65197;50.164;8.012;2023-03-09T15:25:41;11.88;;;2.63;;
76373;SDS011;65197;50.164;8.012;2023-03-09T15:28:07;11.18;;;2.28;;
76373;SDS011;65197;50.164;8.012;2023-03-09T15:30:33;12.75;;;2.90;;
76373;SDS011;65197;50.164;8.012;2023-03-09T15:32:59;8.13;;;2.40;;
76373;SDS011;65197;50.164;8.012;2023-03-09T15:35:24;10.52;;;2.40;;
76373;SDS011;65197;50.164;8.012;2023-03-09T15:37:50;8.00;;;2.45;;
76373;SDS011;65197;50.164;8.012;2023-03-09T15:40:16;11.85;;;2.92;;
76373;SDS011;65197;50.164;8.012;2023-03-09T15:42:42;7.72;;;2.45;;
76373;SDS011;65197;50.164;8.012;2023-03-09T15:45:09;11.25;;;2.28;;
76373;SDS011;65197;50.164;8.012;2023-03-09T15:47:37;7.75;;;1.85;;
76373;SDS011;65197;50.164;8.012;2023-03-09T15:50:03;8.75;;;2.35;;
76373;SDS011;65197;50.164;8.012;2023-03-09T15:52:31;8.70;;;2.20;;
76373;SDS011;65197;50.164;8.012;2023-03-09T15:54:57;11.23;;;2.00;;
76373;SDS011;65197;50.164;8.012;2023-03-09T15:57:23;9.43;;;2.08;;
76373;SDS011;65197;50.164;8.012;2023-03-09T15:59:48;10.75;;;2.63;;
76373;SDS011;65197;50.164;8.012;2023-03-09T16:02:13;14.32;;;2.58;;
76373;SDS011;65197;50.164;8.012;2023-03-09T16:04:39;9.35;;;2.28;;
76373;SDS011;65197;50.164;8.012;2023-03-09T16:07:05;7.72;;;1.98;;
76373;SDS011;65197;50.164;8.012;2023-03-09T16:09:30;8.02;;;2.10;;
76373;SDS011;65197;50.164;8.012;2023-03-09T16:11:55;9.68;;;3.25;;
76373;SDS011;65197;50.164;8.012;2023-03-09T16:14:21;8.70;;;2.92;;
76373;SDS011;65197;50.164;8.012;2023-03-09T16:16:46;9.20;;;2.20;;
76373;SDS011;65197;50.164;8.012;2023-03-09T16:19:12;14.10;;;2.45;;
76373;SDS011;65197;50.164;8.012;2023-03-09T16:21:37;8.70;;;2.13;;
76373;SDS011;65197;50.164;8.012;2023-03-09T16:24:03;22.45;;;9.70;;
76373;SDS011;65197;50.164;8.012;2023-03-09T16:26:29;12.85;;;3.00;;
76373;SDS011;65197;50.164;8.012;2023-03-09T16:28:54;9.63;;;2.78;;